createdAt,value
2023-02-19T00:00:57.526Z,1.45
2023-02-19T00:02:00.805Z,1.65
2023-02-19T00:03:03.761Z,1.42
2023-02-19T00:04:08.485Z,1.70
2023-02-19T00:05:10.694Z,1.30
2023-02-19T00:06:13.894Z,1.50
2023-02-19T00:07:16.919Z,1.50
2023-02-19T00:08:19.143Z,1.65
2023-02-19T00:09:25.205Z,1.60
2023-02-19T00:10:27.278Z,1.55
2023-02-19T00:11:33.955Z,1.70
2023-02-19T00:12:36.079Z,1.50
2023-02-19T00:13:41.110Z,1.67
2023-02-19T00:14:44.382Z,1.50
2023-02-19T00:15:46.500Z,1.38
2023-02-19T00:16:50.227Z,1.80
2023-02-19T00:17:52.404Z,1.65
2023-02-19T00:18:56.801Z,1.42
2023-02-19T00:19:58.874Z,1.63
2023-02-19T00:21:02.259Z,1.90
2023-02-19T00:22:04.286Z,1.60
2023-02-19T00:23:07.314Z,1.60
2023-02-19T00:24:12.993Z,1.70
2023-02-19T00:25:15.208Z,1.75
2023-02-19T00:26:19.115Z,1.60
2023-02-19T00:27:26.040Z,1.77
2023-02-19T00:28:28.541Z,1.80
2023-02-19T00:29:31.881Z,1.77
2023-02-19T00:30:34.189Z,1.50
2023-02-19T00:31:37.707Z,1.95
2023-02-19T00:32:40.190Z,1.92
2023-02-19T00:33:48.256Z,1.50
2023-02-19T00:34:50.317Z,1.70
2023-02-19T00:35:53.412Z,1.50
2023-02-19T00:36:56.651Z,1.70
2023-02-19T00:37:58.784Z,1.50
2023-02-19T00:39:01.966Z,1.40
2023-02-19T00:40:04.273Z,1.90
2023-02-19T00:41:19.967Z,2.05
2023-02-19T00:42:23.248Z,1.65
2023-02-19T00:43:27.135Z,1.90
2023-02-19T00:44:30.299Z,1.25
2023-02-19T00:45:34.441Z,1.77
2023-02-19T00:46:39.548Z,1.98
2023-02-19T00:47:41.760Z,1.80
2023-02-19T00:48:45.064Z,1.38
2023-02-19T00:49:47.153Z,1.80
2023-02-19T00:50:50.523Z,1.52
2023-02-19T00:51:53.421Z,1.58
2023-02-19T00:52:56.513Z,1.90
2023-02-19T00:53:58.953Z,2.00
2023-02-19T00:55:02.240Z,1.63
2023-02-19T00:56:05.386Z,1.60
2023-02-19T00:57:08.601Z,1.40
2023-02-19T00:58:10.680Z,1.55
2023-02-19T00:59:15.957Z,1.80
2023-02-19T01:00:18.281Z,1.65
2023-02-19T01:01:22.002Z,1.60
2023-02-19T01:02:24.037Z,2.17
2023-02-19T01:03:27.785Z,1.48
2023-02-19T01:04:31.017Z,1.58
2023-02-19T01:05:33.132Z,1.50
2023-02-19T01:06:36.619Z,1.50
2023-02-19T01:07:38.926Z,1.70
2023-02-19T01:08:42.044Z,1.80
2023-02-19T01:09:44.262Z,1.48
2023-02-19T01:10:48.269Z,1.40
2023-02-19T01:11:50.401Z,2.10
2023-02-19T01:12:53.772Z,1.70
2023-02-19T01:13:58.432Z,1.48
2023-02-19T01:15:02.935Z,1.83
2023-02-19T01:16:07.062Z,1.60
2023-02-19T01:17:10.241Z,1.60
2023-02-19T01:18:12.403Z,1.88
2023-02-19T01:19:15.663Z,1.40
2023-02-19T01:20:17.900Z,1.80
2023-02-19T01:21:23.164Z,1.55
2023-02-19T01:22:25.276Z,1.73
2023-02-19T01:23:28.438Z,1.70
2023-02-19T01:24:30.566Z,1.60
2023-02-19T01:25:33.688Z,1.50
2023-02-19T01:26:35.773Z,1.70
2023-02-19T01:27:39.605Z,1.92
2023-02-19T01:28:41.961Z,1.40
2023-02-19T01:29:45.110Z,1.65
2023-02-19T01:30:48.569Z,1.55
2023-02-19T01:31:51.832Z,1.40
2023-02-19T01:32:53.969Z,1.33
2023-02-19T01:34:00.069Z,1.80
2023-02-19T01:35:02.165Z,1.50
2023-02-19T01:36:06.702Z,1.35
2023-02-19T01:37:12.053Z,1.70
2023-02-19T01:38:15.177Z,1.73
2023-02-19T01:39:18.258Z,2.35
2023-02-19T01:40:20.515Z,1.70
2023-02-19T01:41:26.390Z,1.33
2023-02-19T01:42:28.498Z,1.60
2023-02-19T01:43:34.035Z,1.70
2023-02-19T01:45:19.249Z,1.38
2023-02-19T01:46:27.559Z,1.77
2023-02-19T01:47:29.828Z,1.58
2023-02-19T01:48:37.251Z,1.60
2023-02-19T01:49:48.734Z,1.80
2023-02-19T01:50:55.423Z,1.52
2023-02-19T01:52:00.348Z,1.70
2023-02-19T01:53:06.108Z,1.63
2023-02-19T01:54:12.529Z,1.40
2023-02-19T01:55:14.761Z,1.67
2023-02-19T01:56:21.363Z,1.80
2023-02-19T01:57:27.886Z,2.10
2023-02-19T01:58:34.532Z,1.83
2023-02-19T01:59:38.208Z,1.63
2023-02-19T02:00:41.678Z,1.75
2023-02-19T02:01:45.504Z,1.75
2023-02-19T02:02:52.701Z,1.58
2023-02-19T02:03:54.845Z,1.60
2023-02-19T02:05:00.194Z,1.67
2023-02-19T02:06:07.026Z,1.60
2023-02-19T02:07:24.395Z,1.40
2023-02-19T02:08:46.118Z,1.50
2023-02-19T02:10:06.612Z,2.05
2023-02-19T02:11:10.155Z,1.90
2023-02-19T02:12:13.036Z,1.50
2023-02-19T02:13:16.225Z,1.80
2023-02-19T02:14:20.193Z,1.70
2023-02-19T02:15:25.352Z,1.92
2023-02-19T02:16:36.730Z,1.52
2023-02-19T02:17:52.634Z,1.60
2023-02-19T02:19:02.754Z,1.63
2023-02-19T02:20:27.624Z,1.70
2023-02-19T02:21:46.777Z,1.63
2023-02-19T02:22:58.736Z,1.80
2023-02-19T02:24:40.678Z,1.70
2023-02-19T02:26:02.194Z,1.70
2023-02-19T02:27:20.838Z,1.85
2023-02-19T02:28:47.629Z,2.13
2023-02-19T02:30:26.975Z,1.73
2023-02-19T02:31:36.924Z,1.85
2023-02-19T02:32:53.271Z,2.20
2023-02-19T02:34:05.367Z,2.25
2023-02-19T02:35:11.370Z,1.88
2023-02-19T02:36:19.614Z,2.10
2023-02-19T02:37:23.279Z,2.30
2023-02-19T02:38:29.879Z,1.90
2023-02-19T02:39:32.765Z,1.92
2023-02-19T02:40:37.308Z,2.10
2023-02-19T02:41:44.383Z,2.15
2023-02-19T02:42:47.508Z,2.50
2023-02-19T02:43:50.594Z,2.10
2023-02-19T02:45:07.712Z,2.17
2023-02-19T02:46:20.137Z,2.20
2023-02-19T02:47:38.550Z,2.05
2023-02-19T02:48:46.590Z,2.30
2023-02-19T02:50:05.206Z,1.98
2023-02-19T02:51:17.380Z,2.45
2023-02-19T02:52:40.282Z,2.15
2023-02-19T02:54:06.770Z,2.60
2023-02-19T02:55:10.931Z,2.15
2023-02-19T02:56:16.649Z,2.95
2023-02-19T02:57:19.708Z,2.20
2023-02-19T02:58:29.225Z,2.30
2023-02-19T02:59:38.219Z,2.08
2023-02-19T03:01:02.842Z,2.20
2023-02-19T03:02:14.098Z,2.20
2023-02-19T03:03:20.021Z,2.50
2023-02-19T03:04:31.302Z,2.30
2023-02-19T03:05:51.826Z,2.40
2023-02-19T03:06:56.654Z,2.00
2023-02-19T03:08:04.716Z,2.35
2023-02-19T03:09:12.584Z,2.47
2023-02-19T03:10:19.818Z,2.20
2023-02-19T03:11:40.836Z,2.30
2023-02-19T03:13:04.368Z,2.50
2023-02-19T03:14:29.710Z,2.60
2023-02-19T03:15:56.121Z,2.30
2023-02-19T03:17:22.348Z,2.50
2023-02-19T03:18:47.848Z,2.35
2023-02-19T03:19:53.981Z,2.50
2023-02-19T03:20:58.544Z,2.60
2023-02-19T03:22:10.060Z,2.67
2023-02-19T03:23:13.904Z,2.60
2023-02-19T03:24:35.598Z,2.72
2023-02-19T03:25:58.047Z,2.45
2023-02-19T03:27:11.634Z,2.63
2023-02-19T03:28:41.074Z,2.85
2023-02-19T03:29:45.831Z,2.15
2023-02-19T03:30:53.474Z,2.50
2023-02-19T03:31:58.811Z,2.95
2023-02-19T03:33:09.220Z,2.33
2023-02-19T03:34:18.948Z,2.55
2023-02-19T03:35:24.378Z,2.42
2023-02-19T03:36:35.314Z,2.90
2023-02-19T03:37:42.698Z,2.47
2023-02-19T03:38:50.880Z,2.63
2023-02-19T03:39:55.600Z,2.63
2023-02-19T03:41:03.871Z,2.90
2023-02-19T03:42:17.842Z,2.70
2023-02-19T03:43:25.155Z,2.80
2023-02-19T03:44:37.610Z,2.92
2023-02-19T03:45:49.348Z,3.20
2023-02-19T03:46:56.212Z,2.90
2023-02-19T03:48:09.108Z,3.28
2023-02-19T03:49:16.841Z,2.70
2023-02-19T03:50:23.024Z,2.60
2023-02-19T03:51:31.450Z,2.80
2023-02-19T03:52:40.954Z,2.53
2023-02-19T03:53:51.972Z,3.03
2023-02-19T03:55:02.103Z,2.83
2023-02-19T03:56:10.318Z,2.72
2023-02-19T03:57:20.204Z,2.67
2023-02-19T03:58:28.208Z,3.15
2023-02-19T03:59:36.253Z,2.85
2023-02-19T04:00:44.129Z,3.15
2023-02-19T04:01:52.250Z,3.05
2023-02-19T04:03:00.459Z,2.92
2023-02-19T04:04:09.555Z,2.80
2023-02-19T04:05:16.421Z,3.25
2023-02-19T04:06:27.208Z,3.15
2023-02-19T04:07:33.219Z,3.30
2023-02-19T04:08:40.813Z,2.92
2023-02-19T04:09:48.293Z,3.30
2023-02-19T04:10:55.954Z,3.03
2023-02-19T04:12:03.202Z,2.78
2023-02-19T04:13:10.592Z,3.22
2023-02-19T04:14:19.458Z,2.63
2023-02-19T04:15:27.686Z,2.80
2023-02-19T04:16:31.231Z,2.80
2023-02-19T04:17:37.568Z,2.90
2023-02-19T04:18:44.692Z,2.90
2023-02-19T04:19:49.881Z,2.78
2023-02-19T04:20:54.616Z,2.70
2023-02-19T04:21:57.229Z,2.75
2023-02-19T04:23:00.671Z,2.70
2023-02-19T04:24:07.134Z,3.38
2023-02-19T04:25:10.525Z,3.00
2023-02-19T04:26:15.255Z,3.10
2023-02-19T04:27:18.953Z,2.90
2023-02-19T04:28:21.719Z,3.00
2023-02-19T04:29:25.023Z,2.60
2023-02-19T04:30:27.359Z,2.20
2023-02-19T04:31:35.325Z,2.60
2023-02-19T04:32:37.596Z,2.67
2023-02-19T04:33:40.883Z,2.40
2023-02-19T04:34:42.989Z,2.58
2023-02-19T04:35:46.054Z,2.90
2023-02-19T04:36:50.626Z,2.85
2023-02-19T04:37:52.703Z,2.90
2023-02-19T04:38:55.846Z,2.65
2023-02-19T04:39:57.974Z,2.30
2023-02-19T04:41:01.042Z,2.65
2023-02-19T04:42:03.151Z,2.75
2023-02-19T04:43:06.517Z,2.65
2023-02-19T04:44:08.593Z,2.70
2023-02-19T04:45:11.707Z,2.72
2023-02-19T04:46:13.914Z,3.00
2023-02-19T04:47:20.549Z,2.47
2023-02-19T04:48:22.667Z,2.40
2023-02-19T04:49:26.320Z,2.95
2023-02-19T04:50:28.446Z,2.65
2023-02-19T04:51:31.577Z,2.75
2023-02-19T04:52:35.626Z,2.63
2023-02-19T04:53:39.407Z,2.47
2023-02-19T04:54:41.587Z,2.35
2023-02-19T04:55:44.936Z,2.45
2023-02-19T04:56:47.039Z,2.45
2023-02-19T04:57:50.349Z,2.38
2023-02-19T04:58:52.474Z,2.40
2023-02-19T04:59:55.550Z,2.40
2023-02-19T05:00:57.729Z,2.75
2023-02-19T05:02:02.463Z,2.60
2023-02-19T05:03:04.514Z,2.40
2023-02-19T05:04:07.757Z,2.90
2023-02-19T05:05:09.847Z,2.83
2023-02-19T05:06:14.710Z,2.60
2023-02-19T05:07:16.896Z,2.45
2023-02-19T05:08:21.662Z,2.30
2023-02-19T05:09:23.791Z,2.60
2023-02-19T05:10:27.322Z,2.15
2023-02-19T05:11:29.528Z,2.00
2023-02-19T05:12:32.846Z,2.80
2023-02-19T05:13:35.024Z,2.15
2023-02-19T05:14:38.490Z,2.67
2023-02-19T05:15:40.635Z,3.10
2023-02-19T05:16:44.003Z,2.63
2023-02-19T05:17:46.120Z,2.80
2023-02-19T05:18:49.455Z,2.03
2023-02-19T05:19:51.559Z,2.00
2023-02-19T05:20:55.421Z,2.35
2023-02-19T05:21:57.562Z,2.85
2023-02-19T05:23:00.724Z,2.60
2023-02-19T05:24:05.090Z,2.75
2023-02-19T05:25:08.676Z,2.60
2023-02-19T05:26:13.444Z,2.45
2023-02-19T05:27:16.665Z,2.45
2023-02-19T05:28:19.755Z,2.13
2023-02-19T05:29:22.879Z,2.00
2023-02-19T05:30:25.232Z,2.20
2023-02-19T05:31:28.640Z,2.15
2023-02-19T05:32:30.902Z,2.65
2023-02-19T05:33:34.142Z,2.00
2023-02-19T05:34:36.370Z,2.40
2023-02-19T05:35:43.332Z,2.45
2023-02-19T05:36:46.447Z,2.30
2023-02-19T05:37:48.630Z,2.42
2023-02-19T05:38:55.224Z,2.60
2023-02-19T05:39:58.971Z,2.30
2023-02-19T05:41:09.651Z,2.85
2023-02-19T05:42:15.430Z,2.10
2023-02-19T05:43:18.077Z,2.30
2023-02-19T05:44:21.440Z,2.08
2023-02-19T05:45:23.694Z,2.30
2023-02-19T05:46:29.381Z,2.28
2023-02-19T05:47:31.649Z,2.30
2023-02-19T05:48:35.001Z,1.95
2023-02-19T05:49:37.190Z,2.00
2023-02-19T05:50:40.450Z,2.38
2023-02-19T05:51:50.831Z,2.20
2023-02-19T05:52:54.064Z,1.98
2023-02-19T05:53:57.366Z,2.13
2023-02-19T05:55:01.995Z,2.45
2023-02-19T05:56:04.976Z,1.80
2023-02-19T05:57:09.642Z,2.40
2023-02-19T05:58:11.814Z,1.90
2023-02-19T05:59:18.353Z,2.10
2023-02-19T06:00:21.177Z,1.67
2023-02-19T06:01:26.179Z,2.20
2023-02-19T06:02:28.562Z,1.73
2023-02-19T06:03:31.875Z,2.15
2023-02-19T06:04:35.184Z,2.03
2023-02-19T06:05:38.023Z,1.90
2023-02-19T06:06:42.237Z,1.85
2023-02-19T06:07:44.367Z,1.88
2023-02-19T06:08:48.996Z,2.53
2023-02-19T06:09:51.258Z,1.90
2023-02-19T06:10:56.084Z,1.70
2023-02-19T06:11:58.252Z,1.63
2023-02-19T06:13:01.548Z,2.00
2023-02-19T06:14:04.061Z,1.77
2023-02-19T06:15:08.248Z,2.00
2023-02-19T06:16:10.744Z,1.65
2023-02-19T06:17:13.871Z,1.95
2023-02-19T06:18:15.977Z,2.22
2023-02-19T06:19:19.265Z,1.75
2023-02-19T06:20:21.388Z,2.30
2023-02-19T06:21:24.613Z,2.47
2023-02-19T06:22:27.048Z,2.08
2023-02-19T06:23:30.934Z,1.80
2023-02-19T06:24:34.194Z,2.20
2023-02-19T06:25:37.442Z,1.73
2023-02-19T06:26:41.108Z,1.88
2023-02-19T06:27:44.465Z,2.03
2023-02-19T06:28:48.472Z,2.00
2023-02-19T06:29:52.123Z,1.90
2023-02-19T06:30:54.470Z,1.52
2023-02-19T06:31:57.707Z,2.05
2023-02-19T06:33:00.068Z,2.00
2023-02-19T06:34:05.345Z,1.70
2023-02-19T06:35:07.972Z,2.10
2023-02-19T06:36:14.804Z,1.98
2023-02-19T06:37:17.034Z,1.77
2023-02-19T06:38:21.973Z,1.73
2023-02-19T06:39:24.038Z,1.90
2023-02-19T06:40:27.334Z,1.90
2023-02-19T06:41:29.544Z,1.88
2023-02-19T06:42:34.476Z,1.70
2023-02-19T06:43:36.916Z,1.70
2023-02-19T06:44:40.165Z,2.10
2023-02-19T06:45:42.273Z,2.10
2023-02-19T06:46:45.499Z,1.70
2023-02-19T06:47:47.858Z,1.50
2023-02-19T06:48:51.160Z,2.00
2023-02-19T06:49:53.295Z,1.75
2023-02-19T06:50:56.825Z,1.80
2023-02-19T06:52:00.578Z,2.20
2023-02-19T06:53:03.940Z,1.80
2023-02-19T06:54:06.203Z,1.73
2023-02-19T06:55:10.671Z,1.50
2023-02-19T06:56:25.172Z,2.08
2023-02-19T06:57:28.348Z,1.85
2023-02-19T06:58:33.116Z,1.85
2023-02-19T06:59:36.439Z,1.95
2023-02-19T07:00:38.585Z,1.80
2023-02-19T07:01:41.921Z,2.05
2023-02-19T07:02:44.149Z,1.98
2023-02-19T07:03:47.458Z,1.90
2023-02-19T07:04:49.560Z,1.88
2023-02-19T07:05:52.758Z,1.90
2023-02-19T07:06:54.890Z,1.60
2023-02-19T07:07:58.161Z,1.40
2023-02-19T07:09:00.689Z,1.85
2023-02-19T07:10:03.970Z,2.22
2023-02-19T07:11:06.298Z,2.03
2023-02-19T07:12:10.278Z,2.00
2023-02-19T07:13:12.472Z,1.75
2023-02-19T07:14:18.352Z,1.75
2023-02-19T07:15:20.488Z,1.65
2023-02-19T07:16:24.453Z,1.80
2023-02-19T07:17:26.673Z,1.75
2023-02-19T07:18:30.948Z,2.08
2023-02-19T07:19:33.092Z,1.88
2023-02-19T07:20:36.389Z,2.65
2023-02-19T07:21:38.737Z,1.70
2023-02-19T07:22:41.988Z,1.98
2023-02-19T07:23:44.963Z,2.00
2023-02-19T07:24:48.127Z,2.17
2023-02-19T07:25:50.361Z,1.80
2023-02-19T07:26:53.774Z,1.80
2023-02-19T07:27:56.278Z,2.08
2023-02-19T07:28:59.527Z,2.10
2023-02-19T07:30:03.620Z,1.90
2023-02-19T07:31:07.016Z,1.98
2023-02-19T07:32:10.327Z,1.90
2023-02-19T07:33:12.442Z,2.40
2023-02-19T07:34:15.669Z,1.92
2023-02-19T07:35:17.784Z,2.20
2023-02-19T07:36:22.003Z,2.20
2023-02-19T07:37:24.142Z,2.08
2023-02-19T07:38:27.879Z,2.53
2023-02-19T07:39:30.146Z,2.13
2023-02-19T07:40:33.253Z,1.98
2023-02-19T07:41:35.431Z,2.03
2023-02-19T07:42:38.781Z,2.00
2023-02-19T07:43:41.546Z,2.20
2023-02-19T07:44:44.962Z,2.50
2023-02-19T07:45:50.242Z,2.40
2023-02-19T07:46:54.419Z,2.00
2023-02-19T07:47:59.628Z,2.25
2023-02-19T07:49:16.171Z,2.20
2023-02-19T07:50:22.563Z,2.25
2023-02-19T07:51:27.100Z,2.35
2023-02-19T07:52:29.769Z,2.30
2023-02-19T07:53:35.497Z,2.05
2023-02-19T07:54:38.848Z,1.83
2023-02-19T07:55:41.023Z,2.28
2023-02-19T07:56:44.252Z,2.30
2023-02-19T07:57:46.335Z,2.30
2023-02-19T07:58:49.575Z,2.30
2023-02-19T07:59:52.762Z,1.90
2023-02-19T08:00:56.570Z,2.20
2023-02-19T08:02:17.241Z,2.10
2023-02-19T08:03:20.538Z,1.80
2023-02-19T08:04:24.146Z,2.00
2023-02-19T08:05:30.631Z,2.08
2023-02-19T08:06:35.240Z,2.25
2023-02-19T08:07:39.099Z,2.00
2023-02-19T08:08:42.066Z,2.38
2023-02-19T08:10:11.486Z,2.65
2023-02-19T08:11:34.943Z,2.10
2023-02-19T08:12:56.157Z,2.10
2023-02-19T08:14:00.134Z,1.95
2023-02-19T08:15:02.270Z,2.20
2023-02-19T08:16:26.621Z,2.45
2023-02-19T08:17:35.748Z,2.45
2023-02-19T08:18:40.609Z,2.38
2023-02-19T08:19:44.378Z,2.28
2023-02-19T08:20:46.652Z,1.90
2023-02-19T08:21:50.749Z,2.28
2023-02-19T08:22:52.880Z,2.10
2023-02-19T08:23:55.968Z,1.90
2023-02-19T08:24:58.319Z,2.22
2023-02-19T08:26:03.254Z,2.15
2023-02-19T08:27:05.563Z,2.10
2023-02-19T08:28:11.251Z,2.17
2023-02-19T08:29:16.898Z,2.63
2023-02-19T08:30:23.696Z,2.10
2023-02-19T08:31:29.200Z,2.45
2023-02-19T08:32:32.179Z,2.17
2023-02-19T08:33:35.614Z,2.53
2023-02-19T08:34:38.036Z,2.00
2023-02-19T08:35:44.983Z,2.20
2023-02-19T08:36:48.349Z,2.20
2023-02-19T08:37:50.529Z,2.00
2023-02-19T08:38:53.586Z,1.70
2023-02-19T08:39:55.671Z,1.80
2023-02-19T08:40:59.066Z,1.83
2023-02-19T08:42:02.158Z,2.65
2023-02-19T08:43:04.758Z,1.67
2023-02-19T08:44:07.845Z,1.95
2023-02-19T08:45:10.179Z,1.80
2023-02-19T08:46:14.028Z,2.03
2023-02-19T08:47:17.617Z,2.10
2023-02-19T08:48:20.685Z,2.00
2023-02-19T08:49:26.262Z,1.75
2023-02-19T08:50:29.551Z,1.88
2023-02-19T08:51:31.552Z,1.90
2023-02-19T08:52:35.426Z,1.80
2023-02-19T08:53:39.130Z,1.27
2023-02-19T08:54:42.210Z,1.73
2023-02-19T08:55:44.336Z,1.90
2023-02-19T08:56:47.361Z,2.08
2023-02-19T08:57:50.663Z,1.77
2023-02-19T08:58:53.787Z,1.60
2023-02-19T08:59:56.267Z,1.85
2023-02-19T09:00:59.508Z,2.15
2023-02-19T09:02:01.719Z,1.90
2023-02-19T09:03:06.289Z,1.85
2023-02-19T09:04:12.840Z,2.20
2023-02-19T09:05:15.482Z,1.92
2023-02-19T09:06:20.780Z,1.80
2023-02-19T09:07:23.048Z,1.80
2023-02-19T09:08:26.121Z,1.73
2023-02-19T09:09:28.226Z,2.20
2023-02-19T09:10:31.271Z,2.05
2023-02-19T09:11:33.337Z,2.20
2023-02-19T09:12:36.418Z,1.90
2023-02-19T09:13:39.446Z,2.05
2023-02-19T09:14:41.989Z,2.17
2023-02-19T09:15:45.047Z,1.83
2023-02-19T09:16:48.052Z,1.60
2023-02-19T09:17:51.903Z,1.90
2023-02-19T09:18:56.366Z,1.45
2023-02-19T09:19:58.454Z,2.13
2023-02-19T09:21:02.512Z,2.00
2023-02-19T09:22:04.993Z,2.40
2023-02-19T09:23:08.031Z,2.55
2023-02-19T09:24:10.422Z,2.20
2023-02-19T09:25:13.479Z,2.72
2023-02-19T09:26:15.630Z,2.10
2023-02-19T09:27:20.822Z,2.15
2023-02-19T09:28:22.810Z,2.40
2023-02-19T09:29:27.495Z,2.15
2023-02-19T09:30:29.528Z,2.22
2023-02-19T09:31:35.256Z,2.83
2023-02-19T09:32:37.329Z,3.10
2023-02-19T09:33:43.715Z,1.98
2023-02-19T09:34:47.202Z,2.00
2023-02-19T09:35:50.242Z,1.70
2023-02-19T09:36:53.351Z,1.63
2023-02-19T09:37:56.364Z,1.70
2023-02-19T09:39:00.365Z,2.10
2023-02-19T09:40:03.400Z,4.10
2023-02-19T09:41:07.956Z,3.60
2023-02-19T09:42:15.465Z,2.42
2023-02-19T09:43:21.798Z,1.50
2023-02-19T09:44:28.550Z,1.50
2023-02-19T09:45:30.603Z,1.63
2023-02-19T09:46:38.175Z,1.63
2023-02-19T09:47:41.285Z,1.40
2023-02-19T09:48:43.304Z,1.85
2023-02-19T09:49:52.660Z,1.83
2023-02-19T09:50:56.900Z,1.95
2023-02-19T09:52:02.802Z,1.20
2023-02-19T09:53:12.690Z,1.00
2023-02-19T09:54:22.679Z,1.10
2023-02-19T09:55:31.228Z,0.70
2023-02-19T09:56:34.710Z,0.60
2023-02-19T09:57:37.953Z,0.70
2023-02-19T09:58:47.817Z,0.70
2023-02-19T09:59:53.612Z,0.60
2023-02-19T10:00:58.362Z,0.50
2023-02-19T10:02:05.947Z,0.80
2023-02-19T10:03:18.414Z,0.90
2023-02-19T10:04:21.508Z,0.80
2023-02-19T10:05:27.314Z,1.00
2023-02-19T10:06:30.249Z,0.70
2023-02-19T10:07:39.410Z,0.85
2023-02-19T10:08:42.235Z,0.65
2023-02-19T10:09:47.061Z,1.48
2023-02-19T10:10:50.131Z,0.80
2023-02-19T10:11:54.906Z,0.80
2023-02-19T10:13:11.079Z,0.90
2023-02-19T10:14:18.246Z,0.85
2023-02-19T10:15:29.349Z,0.68
2023-02-19T10:16:32.581Z,0.80
2023-02-19T10:17:37.373Z,0.80
2023-02-19T10:18:42.626Z,0.68
2023-02-19T10:19:44.785Z,0.73
2023-02-19T10:20:49.645Z,0.70
2023-02-19T10:21:52.841Z,0.60
2023-02-19T10:23:03.353Z,0.77
2023-02-19T10:24:07.294Z,0.68
2023-02-19T10:25:15.142Z,0.80
2023-02-19T10:26:17.853Z,0.70
2023-02-19T10:27:21.292Z,0.90
2023-02-19T10:28:28.349Z,1.00
2023-02-19T10:29:36.738Z,0.60
2023-02-19T10:30:38.937Z,0.80
2023-02-19T10:31:42.044Z,0.80
2023-02-19T10:33:00.413Z,0.90
2023-02-19T10:34:04.292Z,0.60
2023-02-19T10:35:11.442Z,0.70
2023-02-19T10:36:27.836Z,0.70
2023-02-19T10:37:30.795Z,0.77
2023-02-19T10:38:36.230Z,0.75
2023-02-19T10:39:43.723Z,0.70
2023-02-19T10:40:47.403Z,0.60
2023-02-19T10:41:50.692Z,1.00
2023-02-19T10:42:56.916Z,0.90
2023-02-19T10:44:06.558Z,0.80
2023-02-19T10:45:18.691Z,0.70
2023-02-19T10:46:23.967Z,0.68
2023-02-19T10:47:27.294Z,0.90
2023-02-19T10:48:33.465Z,0.77
2023-02-19T10:49:38.673Z,0.60
2023-02-19T10:50:51.521Z,0.80
2023-02-19T10:51:57.721Z,0.80
2023-02-19T10:53:02.103Z,0.95
2023-02-19T10:54:07.022Z,0.70
2023-02-19T10:55:17.862Z,0.80
2023-02-19T10:56:25.798Z,0.75
2023-02-19T10:57:32.985Z,0.70
2023-02-19T10:58:37.850Z,0.70
2023-02-19T10:59:49.637Z,0.60
2023-02-19T11:01:12.333Z,0.70
2023-02-19T11:02:18.968Z,0.70
2023-02-19T11:03:22.458Z,0.70
2023-02-19T11:04:26.677Z,0.80
2023-02-19T11:05:29.969Z,0.60
2023-02-19T11:06:34.986Z,0.73
2023-02-19T11:07:43.929Z,0.60
2023-02-19T11:08:53.288Z,0.73
2023-02-19T11:09:55.839Z,0.88
2023-02-19T11:10:58.913Z,0.60
2023-02-19T11:12:01.752Z,0.80
2023-02-19T11:13:07.436Z,0.70
2023-02-19T11:14:17.666Z,0.70
2023-02-19T11:15:23.287Z,0.57
2023-02-19T11:16:42.225Z,0.80
2023-02-19T11:17:45.521Z,0.57
2023-02-19T11:18:57.211Z,0.60
2023-02-19T11:20:04.738Z,0.73
2023-02-19T11:21:08.266Z,0.60
2023-02-19T11:22:29.080Z,0.68
2023-02-19T11:23:36.176Z,0.70
2023-02-19T11:24:40.580Z,0.60
2023-02-19T11:25:46.886Z,0.60
2023-02-19T11:26:50.286Z,1.02
2023-02-19T11:28:06.965Z,0.80
2023-02-19T11:29:19.703Z,0.80
2023-02-19T11:30:36.359Z,1.00
2023-02-19T11:31:39.947Z,1.00
2023-02-19T11:32:42.028Z,0.85
2023-02-19T11:33:46.724Z,0.70
2023-02-19T11:34:50.017Z,0.68
2023-02-19T11:35:55.417Z,0.70
2023-02-19T11:37:13.466Z,0.60
2023-02-19T11:38:17.258Z,0.60
2023-02-19T11:39:27.834Z,0.50
2023-02-19T11:40:39.575Z,0.80
2023-02-19T11:42:16.210Z,0.80
2023-02-19T11:43:36.884Z,0.60
2023-02-19T11:44:54.148Z,0.60
2023-02-19T11:46:07.029Z,0.90
2023-02-19T11:47:46.431Z,0.90
2023-02-19T11:48:55.873Z,0.85
2023-02-19T11:50:07.029Z,0.70
2023-02-19T11:51:25.265Z,1.00
2023-02-19T11:52:35.809Z,0.80
2023-02-19T11:53:48.682Z,0.70
2023-02-19T11:54:58.168Z,0.85
2023-02-19T11:56:16.973Z,0.93
2023-02-19T11:57:36.843Z,1.10
2023-02-19T11:58:58.941Z,0.70
2023-02-19T12:00:25.197Z,0.80
2023-02-19T12:01:59.511Z,0.90
2023-02-19T12:03:26.518Z,1.38
2023-02-19T12:05:09.529Z,0.80
2023-02-19T12:06:24.887Z,0.70
2023-02-19T12:07:51.366Z,1.00
2023-02-19T12:09:10.833Z,0.70
2023-02-19T12:10:21.918Z,0.70
2023-02-19T12:11:53.577Z,0.90
2023-02-19T12:13:05.757Z,0.80
2023-02-19T12:14:26.580Z,0.80
2023-02-19T12:16:00.086Z,0.85
2023-02-19T12:17:11.385Z,0.75
2023-02-19T12:18:37.159Z,0.70
2023-02-19T12:19:56.430Z,0.68
2023-02-19T12:21:14.364Z,0.77
2023-02-19T12:22:28.445Z,0.80
2023-02-19T12:23:47.525Z,0.68
2023-02-19T12:25:19.941Z,0.75
2023-02-19T12:26:26.045Z,0.82
2023-02-19T12:27:41.551Z,0.93
2023-02-19T12:29:01.542Z,0.73
2023-02-19T12:30:19.833Z,0.90
2023-02-19T12:31:45.373Z,0.90
2023-02-19T12:33:06.452Z,0.70
2023-02-19T12:34:37.312Z,0.85
2023-02-19T12:35:50.451Z,0.90
2023-02-19T12:37:04.319Z,0.90
2023-02-19T12:38:20.908Z,0.77
2023-02-19T12:39:35.134Z,0.90
2023-02-19T12:40:54.790Z,1.02
2023-02-19T12:42:03.762Z,0.90
2023-02-19T12:43:15.108Z,0.85
2023-02-19T12:44:23.699Z,0.90
2023-02-19T12:45:33.200Z,0.70
2023-02-19T12:46:39.774Z,0.93
2023-02-19T12:47:46.601Z,1.20
2023-02-19T12:48:56.264Z,0.98
2023-02-19T12:50:05.906Z,0.80
2023-02-19T12:51:15.590Z,1.23
2023-02-19T12:52:23.315Z,0.80
2023-02-19T12:53:35.595Z,0.80
2023-02-19T12:54:43.290Z,0.80
2023-02-19T12:55:48.271Z,0.80
2023-02-19T12:56:56.110Z,0.90
2023-02-19T12:58:02.332Z,0.80
2023-02-19T12:59:10.467Z,0.95
2023-02-19T13:00:27.976Z,1.10
2023-02-19T13:01:34.698Z,0.85
2023-02-19T13:02:45.573Z,0.93
2023-02-19T13:03:54.733Z,0.95
2023-02-19T13:05:03.035Z,0.82
2023-02-19T13:06:13.653Z,0.70
2023-02-19T13:07:22.465Z,0.70
2023-02-19T13:08:34.123Z,0.80
2023-02-19T13:09:42.335Z,0.80
2023-02-19T13:10:51.403Z,0.70
2023-02-19T13:11:57.766Z,0.88
2023-02-19T13:13:05.369Z,0.73
2023-02-19T13:14:17.734Z,0.77
2023-02-19T13:15:26.714Z,0.73
2023-02-19T13:16:33.203Z,0.90
2023-02-19T13:17:40.744Z,0.80
2023-02-19T13:18:48.287Z,0.70
2023-02-19T13:19:56.495Z,0.90
2023-02-19T13:20:59.387Z,0.70
2023-02-19T13:22:28.090Z,0.80
2023-02-19T13:23:52.142Z,1.00
2023-02-19T13:24:56.891Z,0.95
2023-02-19T13:26:16.080Z,0.60
2023-02-19T13:27:40.065Z,0.98
2023-02-19T13:29:00.606Z,0.80
2023-02-19T13:30:21.846Z,1.38
2023-02-19T13:31:46.022Z,0.80
2023-02-19T13:32:58.753Z,1.20
2023-02-19T13:34:15.094Z,0.90
2023-02-19T13:35:25.656Z,0.90
2023-02-19T13:36:30.853Z,1.15
2023-02-19T13:37:34.685Z,1.25
2023-02-19T13:38:43.961Z,1.10
2023-02-19T13:39:50.062Z,0.95
2023-02-19T13:40:57.602Z,0.60
2023-02-19T13:42:02.410Z,0.77
2023-02-19T13:43:06.551Z,0.60
2023-02-19T13:44:18.982Z,0.90
2023-02-19T13:45:24.600Z,1.10
2023-02-19T13:46:37.090Z,0.70
2023-02-19T13:47:48.322Z,0.93
2023-02-19T13:49:42.319Z,0.60
2023-02-19T13:50:45.777Z,0.70
2023-02-19T13:51:51.434Z,1.30
2023-02-19T13:52:54.013Z,1.02
2023-02-19T13:54:01.048Z,0.60
2023-02-19T13:55:47.217Z,0.70
2023-02-19T13:56:50.606Z,0.88
2023-02-19T13:57:53.412Z,0.80
2023-02-19T13:59:01.443Z,0.63
2023-02-19T14:00:43.171Z,0.80
2023-02-19T14:02:26.608Z,0.70
2023-02-19T14:03:30.359Z,0.60
2023-02-19T14:04:44.452Z,0.60
2023-02-19T14:06:02.622Z,0.70
2023-02-19T14:07:43.922Z,0.65
2023-02-19T14:08:53.228Z,0.80
2023-02-19T14:09:55.859Z,0.68
2023-02-19T14:11:02.530Z,0.80
2023-02-19T14:12:18.842Z,0.70
2023-02-19T14:13:59.244Z,0.80
2023-02-19T14:15:35.494Z,0.70
2023-02-19T14:17:04.998Z,1.00
2023-02-19T14:18:43.551Z,0.90
2023-02-19T14:19:51.442Z,0.80
2023-02-19T14:21:08.356Z,0.77
2023-02-19T14:22:47.517Z,1.15
2023-02-19T14:23:54.724Z,0.80
2023-02-19T14:24:58.452Z,0.90
2023-02-19T14:26:04.222Z,1.20
2023-02-19T14:27:06.490Z,1.10
2023-02-19T14:28:30.930Z,2.15
2023-02-19T14:29:37.465Z,1.48
2023-02-19T14:30:46.952Z,2.55
2023-02-19T14:31:50.351Z,0.80
2023-02-19T14:33:07.643Z,1.30
2023-02-19T14:34:22.484Z,1.00
2023-02-19T14:35:30.882Z,1.20
2023-02-19T14:36:44.133Z,1.15
2023-02-19T14:37:47.109Z,1.13
2023-02-19T14:38:54.075Z,1.40
2023-02-19T14:39:57.750Z,1.00
2023-02-19T14:41:01.959Z,0.80
2023-02-19T14:42:09.031Z,0.90
2023-02-19T14:43:15.176Z,1.13
2023-02-19T14:44:21.816Z,1.00
2023-02-19T14:45:24.766Z,0.82
2023-02-19T14:46:32.095Z,1.10
2023-02-19T14:47:36.435Z,0.90
2023-02-19T14:48:44.055Z,0.80
2023-02-19T14:49:51.006Z,0.95
2023-02-19T14:50:58.987Z,0.82
2023-02-19T14:52:06.170Z,0.90
2023-02-19T14:53:09.045Z,0.95
2023-02-19T14:54:15.868Z,0.80
2023-02-19T14:55:25.028Z,1.17
2023-02-19T14:56:33.035Z,1.23
2023-02-19T14:57:40.342Z,1.00
2023-02-19T14:58:43.373Z,2.55